Aviation WX Report

Aviation WX Report (1)

                                                                                                   GENERAL AVIATION FORECAST ST. MAARTEN

 

DATE ISSUED: June 27,  2017        VALID TIME: 12:00 -24:00Z

 

AREA OF COVERAGE: TNCM TMA (Bounded by 18.25N 063.39W, 18.25N 062.51W, 17.47N 062.22W, 17.26N 062.53W, 17.36N 063.39W AND 18.25N 063.39W)

 

LEVELS OF COVERAGE: MSL TO FL100

SIG. WX: VCSH

SIG. CLDS: FEW TCU, 1900-2200FT AND TOPS ABV FL100

SFC. VIS: 10 KM

 
FCST WNDS/TEMP ALOFT: 27/18:00Z
 
 

LEVEL

WINDS

TEMP

0500 FT

120/10KT

+27

1000 FT

120/10KT

+25

2000 FT

110/10KT

+23

3000 FT

110/10KT

+21

FL050

100/10KT

+19

FL080

120/10KT

+14

FL100

110/05KT

+10

 
 

FZL: ABOVE FL100

SPECIAL FEATURES:

 

TAF:

 

TNCM 271122Z 2712/2812 10008KT P6SM VCSH SCT020 FM271400 13013KT P6SM FEW022 SCT035
FM272300 10010KT P6SM VCSH SCT018 SCT020 SCT035

 

FORECASTER: PIERRE.

Meteorological Department St. Maarten

Airport Rd. # 69, Simpson Bay (1-721) 545-2024 or (1-721) 545-4226 Fax: (1-721) 545-2998
E-Mail: This email address is being protected from spambots. You need JavaScript enabled to view it.

 

 

TAF TAPA 271100Z 2712/2812 14007KT 9999 SCT018
  PROB30 TEMPO 2712/2718 SHRA
  TEMPO 2718/2804 SHRA FEW013CB BKN014 BKN036
  PROB30 TEMPO 2718/2802 4000 +TSRA SCT013CB
TAF TFFR 271100Z 2712/2812 12008KT 9999 SCT025 SCT040
  TEMPO 2712/2806 4000 SHRA SCT018TCU
  PROB40 TEMPO 2715/2721 12015G25KT 1000 TSRA SCT015CB
TJSJ 271122Z 2712/2812 VRB04KT P6SM FEW025 SCT050
  FM271400 07013KT P6SM FEW025 SCT060
  FM272300 10005KT P6SM FEW035
TAF TXKF 271131Z 2712/2812 27015KT 9999 VCSH FEW020 SCT150 BKN300
  TEMPO 2712/2724 32015KT 4800 SHRA BKN020
  PROB40 TEMPO 2712/2724 VRB15G25KT 3200 TSRA BKN014CB
  PROB30 TEMPO 2712/2721 VRB20G30KT 1600 +TSRA BKN009CB
BECMG 2800/2803 27005KT
PROB40 TEMPO 2800/2812 27015KT 4800 SHRA BKN020
PROB30 TEMPO 2800/2806 3200 TSRA BKN014CB
TAF LPAZ 271100Z 2712/2818 22008KT 9999 SCT012
  BECMG 2716/2718 FEW008 BKN035
  PROB30 TEMPO 2716/2809 3000 DZRA BR SCT004 BKN008
  BECMG 2809/2812 SCT012
17.36N 63.40W and 18.30N 63.40W).
Levels of Coverage: MSL to FL100.
SIG WX: ISOL SHRA.
SIG CLDS: FEW TCU 1000 - 1500FT AND TOPS ABV FL100.
SCT/ BKN LYR SC/AC 2000 - 3500FT AND TOPS ABV FL100.
SFC VIS: 10+ KM, 3 - 7 KM IN SHRA.
FCST WNDS/TEMP ALOFT: 14/ 18:00Z
0500 FT.. 200/10KT +26 FL050.....220/10KT +16
1000 FT.. 200/10KT +24 FL080.....220/05KT +11
2000 FT.. 210/15KT +22 FL100.....200/10KT +08
3000 FT.. 210/15KT +19
FZL: ABV FL100.
SPECIAL FEATURES:
NONE.
TAFS:
TAF TNCM 141200Z 1412/1512 14012KT P6SM VCSH BKN018 BKN035
FM141800 21008KT P6SM VCSH SCT022 SCT050=
Forecaster: DJF.

Save

Save

Save

Save

Save

Save

Save

Save

Save

Save

Save

Save

Save

Save

Save

Save

Save

Save

Save

Save

Save

Save

Save

Save

Save

Save

Save

Save

Save

Save

Save

Save

Save

Save

Save

Save

Save

Save

Save

Save

Save

Save

Save

Save

Save

Save

Save

Save

Save

Save

Save

Save

Save

Save

Save

Save

Save

Save

Save

Save

Save

Save

Save

Save

Save

Save

Save

Save

Save

Save

Save

Save

Save

Save

Save

Save

Save

Save

Save

Save

Save

Save

Save

Save

Save

Save

Save

Save

Save

Save

Save

Save

Save

Save

Save

Save

Save

Save

Save

Save

Save

Save

Save

Save

Save

Save

Save

Save

Save

Save

Save

Save

Save

Save

Save

Save

Save

Save

Save

Save

Save

Save

Save

Save

Save

Save

Save

Save

Save

Save

Save

Save

Save

Save

Save

Save

Save

Save

Save

International News

Go to top